Time,TemperatureF,DewpointF,PressureIn,WindDirection,WindDirectionDegrees,WindSpeedMPH,WindSpeedGustMPH,Humidity,HourlyPrecipIn,Conditions,Clouds,dailyrainin,SolarRadiationWatts/m^2,SoftwareType,DateUTC
2013-09-12 00:00:00,75.0,73.2,30.04,SW,225,0.0,0.7,94,0.00,,,0.00,1360.0,meteobridge,2013-09-12 04:00:00,
2013-09-12 00:01:00,75.0,73.2,30.03,East,90,1.6,1.6,94,0.00,,,0.00,1396.0,meteobridge,2013-09-12 04:01:00,
2013-09-12 00:02:00,75.0,73.2,30.03,NW,315,1.6,1.6,94,0.00,,,0.00,1396.0,meteobridge,2013-09-12 04:02:00,
2013-09-12 00:04:00,75.0,73.2,30.03,NE,45,1.6,1.6,94,0.00,,,0.00,1396.0,meteobridge,2013-09-12 04:04:00,
2013-09-12 00:05:00,75.0,73.2,30.03,NE,45,1.6,1.6,94,0.00,,,0.00,1396.0,meteobridge,2013-09-12 04:05:00,
2013-09-12 00:10:00,75.0,73.4,30.03,East,90,3.1,3.1,95,0.00,,,0.00,1396.0,meteobridge,2013-09-12 04:10:00,
2013-09-12 00:16:00,75.2,73.6,30.03,East,90,1.6,3.1,95,0.00,,,0.00,1433.0,meteobridge,2013-09-12 04:16:00,
2013-09-12 00:21:00,75.2,73.6,30.03,East,90,1.6,2.2,95,0.00,,,0.00,1433.0,meteobridge,2013-09-12 04:21:00,
2013-09-12 00:26:00,75.0,73.4,30.03,SE,135,1.6,2.2,95,0.00,,,0.00,1433.0,meteobridge,2013-09-12 04:26:00,
2013-09-12 00:31:00,74.8,73.2,30.03,South,180,0.7,1.6,95,0.00,,,0.00,1470.0,meteobridge,2013-09-12 04:31:00,
2013-09-12 00:36:00,74.8,73.2,30.04,South,180,0.7,1.6,95,0.00,,,0.00,1470.0,meteobridge,2013-09-12 04:36:00,
2013-09-12 00:41:00,74.7,73.4,30.03,South,180,1.6,1.6,96,0.00,,,0.00,1506.0,meteobridge,2013-09-12 04:41:00,
2013-09-12 00:47:00,74.7,73.4,30.03,SE,135,0.7,2.2,96,0.00,,,0.00,1506.0,meteobridge,2013-09-12 04:47:00,
2013-09-12 00:52:00,74.7,73.8,30.03,ENE,68,3.8,3.8,97,0.00,,,0.00,1506.0,meteobridge,2013-09-12 04:52:00,
2013-09-12 00:57:00,74.8,73.9,30.02,East,90,3.8,3.8,97,0.00,,,0.00,1506.0,meteobridge,2013-09-12 04:57:00,
2013-09-12 01:02:00,75.0,74.5,30.02,ESE,113,3.1,4.5,98,0.00,,,0.00,1543.0,meteobridge,2013-09-12 05:02:00,
2013-09-12 01:07:00,75.0,74.5,30.01,SE,135,3.1,3.8,98,0.00,,,0.00,1543.0,meteobridge,2013-09-12 05:07:00,
2013-09-12 01:12:00,75.0,74.5,30.02,East,90,3.1,3.8,98,0.00,,,0.00,1580.0,meteobridge,2013-09-12 05:12:00,
2013-09-12 01:18:00,75.0,74.5,30.01,SE,135,3.1,3.1,98,0.00,,,0.00,1580.0,meteobridge,2013-09-12 05:18:00,
2013-09-12 01:23:00,75.2,74.7,30.01,East,90,3.8,3.8,98,0.00,,,0.00,1580.0,meteobridge,2013-09-12 05:23:00,
2013-09-12 01:28:00,75.2,74.7,30.01,East,90,3.1,4.5,98,0.00,,,0.00,1580.0,meteobridge,2013-09-12 05:28:00,
2013-09-12 01:33:00,75.4,75.0,30.01,SE,135,3.1,3.8,99,0.00,,,0.00,1616.0,meteobridge,2013-09-12 05:33:00,
2013-09-12 01:38:00,75.2,74.8,30.01,SE,135,1.6,3.1,99,0.00,,,0.00,1616.0,meteobridge,2013-09-12 05:38:00,
2013-09-12 01:43:00,75.2,74.8,30.00,SE,135,2.2,3.1,99,0.00,,,0.00,1653.0,meteobridge,2013-09-12 05:43:00,
2013-09-12 01:49:00,75.2,74.8,30.00,SW,225,2.2,4.5,99,0.00,,,0.00,1653.0,meteobridge,2013-09-12 05:49:00,
2013-09-12 01:54:00,75.4,75.0,30.01,SE,135,2.2,3.1,99,0.00,,,0.00,1653.0,meteobridge,2013-09-12 05:54:00,
2013-09-12 01:59:00,75.2,74.8,30.01,SW,225,3.1,3.1,99,0.00,,,0.00,1653.0,meteobridge,2013-09-12 05:59:00,
2013-09-12 02:04:00,75.2,74.8,30.01,ESE,113,3.1,3.1,99,0.00,,,0.00,1689.0,meteobridge,2013-09-12 06:04:00,
2013-09-12 02:09:00,75.2,74.8,30.01,East,90,3.8,3.8,99,0.00,,,0.00,1689.0,meteobridge,2013-09-12 06:09:00,
2013-09-12 02:14:00,75.2,74.8,30.01,East,90,3.1,3.8,99,0.00,,,0.00,1689.0,meteobridge,2013-09-12 06:14:00,
2013-09-12 02:20:00,75.2,74.8,30.01,East,90,3.1,4.5,99,0.00,,,0.00,1689.0,meteobridge,2013-09-12 06:20:00,
2013-09-12 02:25:00,75.2,74.8,30.01,East,90,2.2,2.2,99,0.00,,,0.00,1653.0,meteobridge,2013-09-12 06:25:00,
2013-09-12 02:30:00,75.2,74.8,30.01,East,90,1.6,3.1,99,0.00,,,0.00,1653.0,meteobridge,2013-09-12 06:30:00,
2013-09-12 02:35:00,75.4,75.0,30.01,East,90,0.7,2.2,99,0.00,,,0.00,1616.0,meteobridge,2013-09-12 06:35:00,
2013-09-12 02:40:00,75.4,75.0,30.01,NE,45,0.7,0.7,99,0.00,,,0.00,1616.0,meteobridge,2013-09-12 06:40:00,
2013-09-12 02:45:00,75.2,74.8,30.01,South,180,0.7,1.6,99,0.00,,,0.00,1580.0,meteobridge,2013-09-12 06:45:00,
2013-09-12 02:51:00,75.2,74.8,30.01,South,180,0.0,1.6,99,0.00,,,0.00,1616.0,meteobridge,2013-09-12 06:51:00,
2013-09-12 02:56:00,75.0,74.7,30.00,West,270,1.6,1.6,99,0.00,,,0.00,1616.0,meteobridge,2013-09-12 06:56:00,
2013-09-12 03:01:00,74.8,74.5,30.01,NW,315,0.0,0.7,99,0.00,,,0.00,1616.0,meteobridge,2013-09-12 07:01:00,
2013-09-12 03:06:00,74.7,74.3,30.00,NE,45,1.6,1.6,99,0.00,,,0.00,1616.0,meteobridge,2013-09-12 07:06:00,
2013-09-12 03:11:00,74.7,74.3,29.99,NW,315,0.7,0.7,99,0.00,,,0.00,1616.0,meteobridge,2013-09-12 07:11:00,
2013-09-12 03:16:00,74.7,74.3,29.99,North,0,0.0,0.7,99,0.00,,,0.00,1616.0,meteobridge,2013-09-12 07:16:00,
2013-09-12 03:22:00,74.7,74.3,29.99,NE,45,1.6,2.2,99,0.00,,,0.00,1653.0,meteobridge,2013-09-12 07:22:00,
2013-09-12 03:27:00,74.5,74.1,29.99,East,90,0.7,1.6,99,0.00,,,0.00,1653.0,meteobridge,2013-09-12 07:27:00,
2013-09-12 03:32:00,74.5,74.1,29.99,East,90,1.6,2.2,99,0.00,,,0.00,1653.0,meteobridge,2013-09-12 07:32:00,
2013-09-12 03:37:00,74.5,74.1,29.99,South,180,1.6,1.6,99,0.00,,,0.00,1653.0,meteobridge,2013-09-12 07:37:00,
2013-09-12 03:42:00,74.3,73.9,29.98,East,90,0.0,2.2,99,0.00,,,0.00,1689.0,meteobridge,2013-09-12 07:42:00,
2013-09-12 03:47:00,74.3,73.9,29.98,WNW,293,0.7,0.7,99,0.00,,,0.00,1689.0,meteobridge,2013-09-12 07:47:00,
2013-09-12 03:53:00,74.3,73.9,29.99,NW,315,0.7,0.7,99,0.00,,,0.00,1689.0,meteobridge,2013-09-12 07:53:00,
2013-09-12 03:58:00,73.9,73.6,29.99,East,90,2.2,2.2,99,0.00,,,0.00,1689.0,meteobridge,2013-09-12 07:58:00,
2013-09-12 04:03:00,74.1,73.8,29.99,NE,45,1.6,1.6,99,0.00,,,0.00,1689.0,meteobridge,2013-09-12 08:03:00,
2013-09-12 04:08:00,74.1,73.8,29.99,East,90,2.2,2.2,99,0.00,,,0.00,1689.0,meteobridge,2013-09-12 08:08:00,
2013-09-12 04:13:00,74.1,73.8,29.98,East,90,1.6,1.6,99,0.00,,,0.00,1689.0,meteobridge,2013-09-12 08:13:00,
2013-09-12 04:18:00,74.1,73.8,29.99,East,90,0.7,1.6,99,0.00,,,0.00,1689.0,meteobridge,2013-09-12 08:18:00,
2013-09-12 04:24:00,74.3,73.9,29.99,North,0,0.7,0.7,99,0.00,,,0.00,1689.0,meteobridge,2013-09-12 08:24:00,
2013-09-12 04:29:00,74.3,73.9,29.98,SE,135,0.7,0.7,99,0.00,,,0.00,1689.0,meteobridge,2013-09-12 08:29:00,
2013-09-12 04:34:00,74.3,73.9,29.99,East,90,0.0,0.7,99,0.00,,,0.00,1689.0,meteobridge,2013-09-12 08:34:00,
2013-09-12 04:39:00,74.3,73.9,29.99,NW,315,0.0,0.7,99,0.00,,,0.00,1689.0,meteobridge,2013-09-12 08:39:00,
2013-09-12 04:44:00,74.3,73.9,29.98,East,90,2.2,2.2,99,0.00,,,0.00,1689.0,meteobridge,2013-09-12 08:44:00,
2013-09-12 04:49:00,74.5,74.1,29.98,NE,45,1.6,1.6,99,0.00,,,0.00,1689.0,meteobridge,2013-09-12 08:49:00,
2013-09-12 04:55:00,74.5,74.1,29.98,NW,315,1.6,1.6,99,0.00,,,0.00,1689.0,meteobridge,2013-09-12 08:55:00,
2013-09-12 05:00:00,74.3,73.9,29.98,North,0,1.6,1.6,99,0.00,,,0.00,1689.0,meteobridge,2013-09-12 09:00:00,
2013-09-12 05:05:00,74.1,73.8,29.98,East,90,3.1,3.1,99,0.00,,,0.00,1653.0,meteobridge,2013-09-12 09:05:00,
2013-09-12 05:10:00,74.3,73.9,29.99,East,90,1.6,1.6,99,0.00,,,0.00,1653.0,meteobridge,2013-09-12 09:10:00,
2013-09-12 05:15:00,74.3,73.9,29.99,East,90,2.2,2.2,99,0.00,,,0.00,1653.0,meteobridge,2013-09-12 09:15:00,
2013-09-12 05:20:00,74.3,73.9,29.99,East,90,2.2,2.2,99,0.00,,,0.00,1653.0,meteobridge,2013-09-12 09:20:00,
2013-09-12 05:26:00,74.3,73.9,29.99,East,90,0.7,2.2,99,0.00,,,0.00,1653.0,meteobridge,2013-09-12 09:26:00,
2013-09-12 05:31:00,74.5,74.1,29.99,NE,45,1.6,1.6,99,0.00,,,0.00,1616.0,meteobridge,2013-09-12 09:31:00,
2013-09-12 05:36:00,74.5,74.1,29.99,East,90,3.1,3.1,99,0.00,,,0.00,1616.0,meteobridge,2013-09-12 09:36:00,
2013-09-12 05:41:00,74.7,74.3,29.99,NE,45,1.6,3.1,99,0.00,,,0.00,1616.0,meteobridge,2013-09-12 09:41:00,
2013-09-12 05:46:00,74.5,74.1,29.99,East,90,2.2,4.5,99,0.00,,,0.00,1616.0,meteobridge,2013-09-12 09:46:00,
2013-09-12 05:51:00,74.5,74.1,29.99,NE,45,2.2,2.2,99,0.00,,,0.00,1616.0,meteobridge,2013-09-12 09:51:00,
2013-09-12 05:57:00,74.5,74.1,29.99,East,90,1.6,2.2,99,0.00,,,0.00,1616.0,meteobridge,2013-09-12 09:57:00,
2013-09-12 06:02:00,74.5,74.1,29.99,NE,45,1.6,1.6,99,0.00,,,0.00,1580.0,meteobridge,2013-09-12 10:02:00,
2013-09-12 06:07:00,74.5,74.1,29.99,West,270,0.7,0.7,99,0.00,,,0.00,1580.0,meteobridge,2013-09-12 10:07:00,
2013-09-12 06:12:00,74.5,74.1,29.99,East,90,0.0,1.6,99,0.00,,,0.00,1580.0,meteobridge,2013-09-12 10:12:00,
2013-09-12 06:17:00,74.3,73.9,29.99,East,90,1.6,1.6,99,0.00,,,0.00,1580.0,meteobridge,2013-09-12 10:17:00,
2013-09-12 06:23:00,74.3,73.9,29.99,SE,135,1.6,2.2,99,0.00,,,0.00,1580.0,meteobridge,2013-09-12 10:23:00,
2013-09-12 06:28:00,74.3,73.9,29.99,NE,45,0.7,0.7,99,0.00,,,0.00,1580.0,meteobridge,2013-09-12 10:28:00,
2013-09-12 06:33:00,74.3,73.9,29.99,East,90,0.7,1.6,99,0.00,,,0.00,1580.0,meteobridge,2013-09-12 10:33:00,
2013-09-12 06:38:00,74.3,73.9,30.00,East,90,0.7,1.6,99,0.00,,,0.00,1580.0,meteobridge,2013-09-12 10:38:00,
2013-09-12 06:43:00,74.3,73.9,30.00,NE,45,0.7,0.7,99,0.00,,,0.00,1543.0,meteobridge,2013-09-12 10:43:00,
2013-09-12 06:48:00,74.3,73.9,30.00,East,90,2.2,2.2,99,0.00,,,0.00,1543.0,meteobridge,2013-09-12 10:48:00,
2013-09-12 06:54:00,74.3,73.9,30.00,NE,45,2.2,2.2,99,0.00,,,0.00,1543.0,meteobridge,2013-09-12 10:54:00,
2013-09-12 06:59:00,74.1,73.8,30.00,East,90,1.6,2.2,99,0.00,,,0.00,1543.0,meteobridge,2013-09-12 10:59:00,
2013-09-12 07:04:00,74.3,73.9,30.00,East,90,3.1,3.1,99,0.00,,,0.00,1543.0,meteobridge,2013-09-12 11:04:00,
2013-09-12 07:09:00,74.1,73.8,30.00,East,90,1.6,1.6,99,0.00,,,0.00,1543.0,meteobridge,2013-09-12 11:09:00,
2013-09-12 07:14:00,74.1,73.8,30.00,East,90,1.6,1.6,99,0.00,,,0.00,1543.0,meteobridge,2013-09-12 11:14:00,
2013-09-12 07:19:00,74.1,73.8,30.00,NE,45,1.6,1.6,99,0.00,,,0.00,1543.0,meteobridge,2013-09-12 11:19:00,
2013-09-12 07:25:00,74.3,73.9,30.00,East,90,1.6,3.1,99,0.00,,,0.00,1506.0,meteobridge,2013-09-12 11:25:00,
2013-09-12 07:30:00,74.3,73.9,30.00,North,0,2.2,3.1,99,0.00,,,0.00,1506.0,meteobridge,2013-09-12 11:30:00,
2013-09-12 07:35:00,74.5,74.1,30.00,East,90,0.7,0.7,99,0.00,,,0.00,1506.0,meteobridge,2013-09-12 11:35:00,
2013-09-12 07:40:00,74.7,74.3,30.00,East,90,2.2,2.2,99,0.00,,,0.00,1506.0,meteobridge,2013-09-12 11:40:00,
2013-09-12 07:45:00,74.7,74.3,30.00,North,0,3.1,3.1,99,0.00,,,0.00,1506.0,meteobridge,2013-09-12 11:45:00,
2013-09-12 07:50:00,74.8,74.5,30.00,East,90,2.2,2.2,99,0.00,,,0.00,1506.0,meteobridge,2013-09-12 11:50:00,
2013-09-12 07:56:00,75.2,74.8,30.01,East,90,3.8,3.8,99,0.00,,,0.00,1470.0,meteobridge,2013-09-12 11:56:00,
2013-09-12 08:01:00,75.4,75.0,30.01,East,90,2.2,3.1,99,0.00,,,0.00,1470.0,meteobridge,2013-09-12 12:01:00,
2013-09-12 08:06:00,75.7,75.4,30.01,East,90,3.8,3.8,99,0.00,,,0.00,1470.0,meteobridge,2013-09-12 12:06:00,
2013-09-12 08:11:00,76.1,75.7,30.02,NE,45,0.7,2.2,99,0.00,,,0.00,1470.0,meteobridge,2013-09-12 12:11:00,
2013-09-12 08:16:00,76.5,76.1,30.02,NE,45,3.1,3.1,99,0.00,,,0.00,1470.0,meteobridge,2013-09-12 12:16:00,
2013-09-12 08:21:00,76.8,76.5,30.02,ENE,68,2.2,3.8,99,0.00,,,0.00,1433.0,meteobridge,2013-09-12 12:21:00,
2013-09-12 08:26:00,77.5,77.2,30.02,East,90,1.6,3.1,99,0.00,,,0.00,1433.0,meteobridge,2013-09-12 12:26:00,
2013-09-12 08:32:00,78.4,78.1,30.02,East,90,3.1,3.8,99,0.00,,,0.00,1433.0,meteobridge,2013-09-12 12:32:00,
2013-09-12 08:37:00,78.8,78.4,30.02,East,90,3.1,3.8,99,0.00,,,0.00,1433.0,meteobridge,2013-09-12 12:37:00,
2013-09-12 08:42:00,79.0,78.6,30.02,North,0,3.1,3.1,99,0.00,,,0.00,1433.0,meteobridge,2013-09-12 12:42:00,
2013-09-12 08:47:00,79.5,79.2,30.02,North,0,2.2,4.5,99,0.00,,,0.00,1433.0,meteobridge,2013-09-12 12:47:00,
2013-09-12 08:52:00,79.5,78.6,30.02,East,90,6.9,8.3,97,0.00,,,0.00,1433.0,meteobridge,2013-09-12 12:52:00,
2013-09-12 08:57:00,79.3,78.4,30.02,East,90,5.4,7.6,97,0.00,,,0.00,1433.0,meteobridge,2013-09-12 12:57:00,
2013-09-12 09:03:00,79.5,79.0,30.02,East,90,2.2,5.4,98,0.00,,,0.00,1396.0,meteobridge,2013-09-12 13:03:00,
2013-09-12 09:08:00,79.7,79.2,30.02,East,90,3.8,5.4,98,0.00,,,0.00,1396.0,meteobridge,2013-09-12 13:08:00,
2013-09-12 09:13:00,79.9,79.0,30.02,East,90,4.5,5.4,97,0.00,,,0.00,1396.0,meteobridge,2013-09-12 13:13:00,
2013-09-12 09:18:00,80.1,79.2,30.01,East,90,3.8,4.5,97,0.00,,,0.00,1396.0,meteobridge,2013-09-12 13:18:00,
2013-09-12 09:23:00,80.1,78.8,30.01,East,90,6.0,6.0,96,0.00,,,0.00,1360.0,meteobridge,2013-09-12 13:23:00,
2013-09-12 09:28:00,80.4,79.5,30.01,East,90,5.4,5.4,97,0.00,,,0.00,1360.0,meteobridge,2013-09-12 13:28:00,
2013-09-12 09:34:00,81.3,80.1,30.01,East,90,3.8,5.4,96,0.00,,,0.00,1360.0,meteobridge,2013-09-12 13:34:00,
2013-09-12 09:39:00,82.0,80.1,30.01,East,90,3.8,5.4,94,0.00,,,0.00,1360.0,meteobridge,2013-09-12 13:39:00,
2013-09-12 09:44:00,82.6,80.4,30.01,SE,135,3.8,3.8,93,0.00,,,0.00,1360.0,meteobridge,2013-09-12 13:44:00,
2013-09-12 09:49:00,83.5,81.3,30.01,NE,45,1.6,3.1,93,0.00,,,0.00,1360.0,meteobridge,2013-09-12 13:49:00,
2013-09-12 09:54:00,84.4,80.4,30.02,North,0,4.5,5.4,88,0.00,,,0.00,1360.0,meteobridge,2013-09-12 13:54:00,
2013-09-12 09:59:00,84.2,79.2,30.02,SE,135,3.1,4.5,85,0.00,,,0.00,1360.0,meteobridge,2013-09-12 13:59:00,
2013-09-12 10:05:00,84.0,79.0,30.02,East,90,3.8,5.4,85,0.00,,,0.00,1323.0,meteobridge,2013-09-12 14:05:00,
2013-09-12 10:10:00,83.7,78.6,30.02,North,0,1.6,3.1,85,0.00,,,0.00,1323.0,meteobridge,2013-09-12 14:10:00,
2013-09-12 10:15:00,83.8,78.4,30.02,East,90,5.4,5.4,84,0.00,,,0.00,1323.0,meteobridge,2013-09-12 14:15:00,
2013-09-12 10:20:00,83.5,78.1,30.02,East,90,3.1,3.8,84,0.00,,,0.00,1323.0,meteobridge,2013-09-12 14:20:00,
2013-09-12 10:25:00,84.2,78.8,30.02,SSE,158,2.2,6.0,84,0.00,,,0.00,1323.0,meteobridge,2013-09-12 14:25:00,
2013-09-12 10:30:00,84.0,78.3,30.02,East,90,3.1,4.5,83,0.00,,,0.00,1287.0,meteobridge,2013-09-12 14:30:00,
2013-09-12 10:36:00,84.2,78.4,30.02,East,90,4.5,4.5,83,0.00,,,0.00,1287.0,meteobridge,2013-09-12 14:36:00,
2013-09-12 10:41:00,84.9,78.4,30.02,SE,135,3.8,6.9,81,0.00,,,0.00,1287.0,meteobridge,2013-09-12 14:41:00,
2013-09-12 10:46:00,84.9,78.1,30.02,East,90,6.0,6.0,80,0.00,,,0.00,1287.0,meteobridge,2013-09-12 14:46:00,
2013-09-12 10:51:00,84.7,77.9,30.02,ENE,68,3.1,4.5,80,0.00,,,0.00,1287.0,meteobridge,2013-09-12 14:51:00,
2013-09-12 10:56:00,84.6,77.4,30.01,SE,135,3.8,6.0,79,0.00,,,0.00,1287.0,meteobridge,2013-09-12 14:56:00,
2013-09-12 11:01:00,84.9,77.7,30.01,SE,135,3.8,7.6,79,0.00,,,0.00,1250.0,meteobridge,2013-09-12 15:01:00,
2013-09-12 11:07:00,85.1,77.0,30.01,ESE,113,5.4,7.6,77,0.00,,,0.00,1250.0,meteobridge,2013-09-12 15:07:00,
2013-09-12 11:12:00,85.5,77.4,30.02,SE,135,4.5,4.5,77,0.00,,,0.00,1250.0,meteobridge,2013-09-12 15:12:00,
2013-09-12 11:17:00,85.3,77.7,30.01,SE,135,5.4,5.4,78,0.00,,,0.00,1250.0,meteobridge,2013-09-12 15:17:00,
2013-09-12 11:22:00,86.0,77.2,30.01,East,90,3.8,3.8,75,0.00,,,0.00,1250.0,meteobridge,2013-09-12 15:22:00,
2013-09-12 11:27:00,86.5,77.7,30.01,SE,135,5.4,5.4,75,0.00,,,0.00,1250.0,meteobridge,2013-09-12 15:27:00,
2013-09-12 11:32:00,86.4,77.0,30.01,East,90,3.1,4.5,74,0.00,,,0.00,1213.0,meteobridge,2013-09-12 15:32:00,
2013-09-12 11:38:00,87.1,77.7,30.02,SW,225,5.4,5.4,74,0.00,,,0.00,1213.0,meteobridge,2013-09-12 15:38:00,
2013-09-12 11:43:00,86.9,76.8,30.02,SE,135,2.2,6.9,72,0.00,,,0.00,1213.0,meteobridge,2013-09-12 15:43:00,
2013-09-12 11:48:00,86.9,76.8,30.01,SSW,203,6.0,7.6,72,0.00,,,0.00,1213.0,meteobridge,2013-09-12 15:48:00,
2013-09-12 11:53:00,87.1,77.0,30.01,South,180,3.1,6.0,72,0.00,,,0.00,1213.0,meteobridge,2013-09-12 15:53:00,
2013-09-12 11:58:00,87.3,76.6,30.01,SSE,158,5.4,5.4,71,0.00,,,0.00,1213.0,meteobridge,2013-09-12 15:58:00,
2013-09-12 12:03:00,87.3,77.5,30.01,East,90,3.1,4.5,73,0.00,,,0.00,1177.0,meteobridge,2013-09-12 16:03:00,
2013-09-12 12:09:00,87.3,77.5,30.01,East,90,5.4,5.4,73,0.00,,,0.00,1177.0,meteobridge,2013-09-12 16:09:00,
2013-09-12 12:14:00,86.5,76.5,30.01,South,180,4.5,6.0,72,0.00,,,0.00,1177.0,meteobridge,2013-09-12 16:14:00,
2013-09-12 12:19:00,85.8,76.1,30.01,South,180,3.1,4.5,73,0.00,,,0.00,1177.0,meteobridge,2013-09-12 16:19:00,
2013-09-12 12:24:00,86.0,77.2,30.01,East,90,3.1,5.4,75,0.00,,,0.00,1177.0,meteobridge,2013-09-12 16:24:00,
2013-09-12 12:29:00,87.1,77.4,30.01,East,90,4.5,4.5,73,0.00,,,0.00,1177.0,meteobridge,2013-09-12 16:29:00,
2013-09-12 12:34:00,87.8,75.9,30.00,NE,45,4.5,4.5,68,0.00,,,0.00,1177.0,meteobridge,2013-09-12 16:34:00,
2013-09-12 12:40:00,88.5,76.6,30.00,South,180,3.1,3.1,68,0.00,,,0.00,1177.0,meteobridge,2013-09-12 16:40:00,
2013-09-12 12:45:00,88.9,75.6,29.99,SSW,203,5.4,5.4,65,0.00,,,0.00,1140.0,meteobridge,2013-09-12 16:45:00,
2013-09-12 12:50:00,88.3,75.9,29.99,South,180,3.1,3.1,67,0.00,,,0.00,1140.0,meteobridge,2013-09-12 16:50:00,
2013-09-12 12:55:00,88.3,77.4,29.99,NW,315,4.5,4.5,70,0.00,,,0.00,1140.0,meteobridge,2013-09-12 16:55:00,
2013-09-12 13:00:00,88.9,76.1,29.98,East,90,3.8,6.0,66,0.00,,,0.00,1140.0,meteobridge,2013-09-12 17:00:00,
2013-09-12 13:05:00,88.9,75.6,29.98,East,90,5.4,5.4,65,0.00,,,0.00,1140.0,meteobridge,2013-09-12 17:05:00,
2013-09-12 13:11:00,89.6,76.3,29.98,East,90,2.2,2.2,65,0.00,,,0.00,1104.0,meteobridge,2013-09-12 17:11:00,
2013-09-12 13:16:00,88.7,74.5,29.98,East,90,3.1,3.8,63,0.00,,,0.00,1104.0,meteobridge,2013-09-12 17:16:00,
2013-09-12 13:21:00,88.3,74.7,29.98,SE,135,1.6,3.1,64,0.00,,,0.00,1104.0,meteobridge,2013-09-12 17:21:00,
2013-09-12 13:26:00,89.1,75.7,29.98,South,180,3.1,4.5,65,0.00,,,0.00,1104.0,meteobridge,2013-09-12 17:26:00,
2013-09-12 13:31:00,89.6,75.4,29.98,SSW,203,4.5,4.5,63,0.00,,,0.00,1104.0,meteobridge,2013-09-12 17:31:00,
2013-09-12 13:36:00,89.6,75.4,29.98,SSW,203,4.5,4.5,63,0.00,,,0.00,1104.0,meteobridge,2013-09-12 17:36:00,
2013-09-12 13:42:00,88.9,74.7,29.98,South,180,2.2,3.1,63,0.00,,,0.00,1104.0,meteobridge,2013-09-12 17:42:00,
2013-09-12 13:47:00,88.3,73.6,29.97,South,180,1.6,3.1,62,0.00,,,0.00,1104.0,meteobridge,2013-09-12 17:47:00,
2013-09-12 13:52:00,88.2,73.0,29.97,West,270,1.6,3.1,61,0.00,,,0.00,1067.0,meteobridge,2013-09-12 17:52:00,
2013-09-12 13:57:00,88.2,72.5,29.97,South,180,3.8,4.5,60,0.00,,,0.00,1067.0,meteobridge,2013-09-12 17:57:00,
2013-09-12 14:02:00,88.2,73.0,29.97,East,90,0.7,1.6,61,0.00,,,0.00,1067.0,meteobridge,2013-09-12 18:02:00,
2013-09-12 14:08:00,88.3,73.2,29.96,East,90,1.6,2.2,61,0.00,,,0.00,1067.0,meteobridge,2013-09-12 18:08:00,
2013-09-12 14:13:00,88.5,73.4,29.96,NW,315,2.2,2.2,61,0.00,,,0.00,1067.0,meteobridge,2013-09-12 18:13:00,
2013-09-12 14:18:00,88.9,73.8,29.96,NE,45,2.2,2.2,61,0.00,,,0.00,1067.0,meteobridge,2013-09-12 18:18:00,
2013-09-12 14:23:00,88.9,74.1,29.96,ENE,68,2.2,3.1,62,0.00,,,0.00,1067.0,meteobridge,2013-09-12 18:23:00,
2013-09-12 14:28:00,88.9,74.7,29.96,North,0,3.1,3.1,63,0.00,,,0.00,1067.0,meteobridge,2013-09-12 18:28:00,
2013-09-12 14:33:00,88.5,74.8,29.95,NE,45,1.6,3.8,64,0.00,,,0.00,1030.0,meteobridge,2013-09-12 18:33:00,
2013-09-12 14:39:00,88.0,75.2,29.96,West,270,2.2,3.1,66,0.00,,,0.00,1030.0,meteobridge,2013-09-12 18:39:00,
2013-09-12 14:44:00,86.2,76.5,29.96,NNE,23,9.8,9.8,73,0.09,,,0.09,1030.0,meteobridge,2013-09-12 18:44:00,
2013-09-12 14:49:00,82.6,75.0,29.95,NW,315,5.4,8.3,78,0.11,,,0.11,1030.0,meteobridge,2013-09-12 18:49:00,
2013-09-12 14:54:00,80.6,74.7,29.95,NW,315,3.8,6.0,82,0.11,,,0.11,1030.0,meteobridge,2013-09-12 18:54:00,
2013-09-12 14:59:00,79.3,74.8,29.95,NW,315,3.8,3.8,86,0.11,,,0.11,1030.0,meteobridge,2013-09-12 18:59:00,
2013-09-12 15:04:00,79.2,77.0,29.96,South,180,3.1,3.1,93,0.12,,,0.12,994.0,meteobridge,2013-09-12 19:04:00,
2013-09-12 15:10:00,78.6,76.8,29.97,SSW,203,5.4,5.4,94,0.14,,,0.14,994.0,meteobridge,2013-09-12 19:10:00,
2013-09-12 15:15:00,78.4,76.8,29.96,SE,135,12.1,12.1,95,0.27,,,0.27,994.0,meteobridge,2013-09-12 19:15:00,
2013-09-12 15:20:00,76.6,74.8,29.97,South,180,7.6,7.6,94,0.57,,,0.57,994.0,meteobridge,2013-09-12 19:20:00,
2013-09-12 15:25:00,75.4,73.8,29.96,SW,225,2.2,3.8,95,0.76,,,0.76,994.0,meteobridge,2013-09-12 19:25:00,
2013-09-12 15:30:00,75.2,73.9,29.96,South,180,2.2,3.8,96,0.85,,,0.85,994.0,meteobridge,2013-09-12 19:30:00,
2013-09-12 15:35:00,75.4,74.1,29.95,South,180,2.2,3.8,96,0.91,,,0.91,994.0,meteobridge,2013-09-12 19:35:00,
2013-09-12 15:41:00,75.6,75.0,29.94,SSE,158,2.2,3.8,98,0.97,,,0.97,994.0,meteobridge,2013-09-12 19:41:00,
2013-09-12 15:46:00,75.7,75.4,29.93,SW,225,5.4,6.0,99,0.89,,,0.98,994.0,meteobridge,2013-09-12 19:46:00,
2013-09-12 15:51:00,76.1,75.7,29.93,South,180,1.6,1.6,99,0.89,,,0.99,957.0,meteobridge,2013-09-12 19:51:00,
2013-09-12 15:56:00,76.8,76.5,29.93,South,180,2.2,2.2,99,0.89,,,0.99,957.0,meteobridge,2013-09-12 19:56:00,
2013-09-12 16:01:00,78.1,77.7,29.93,South,180,3.1,3.1,99,0.89,,,0.99,957.0,meteobridge,2013-09-12 20:01:00,
2013-09-12 16:06:00,78.6,78.3,29.92,South,180,0.7,2.2,99,0.87,,,0.99,957.0,meteobridge,2013-09-12 20:06:00,
2013-09-12 16:12:00,78.8,78.4,29.92,West,270,1.6,1.6,99,0.81,,,0.99,957.0,meteobridge,2013-09-12 20:12:00,
2013-09-12 16:17:00,79.5,79.2,29.92,NW,315,0.0,2.2,99,0.61,,,0.99,957.0,meteobridge,2013-09-12 20:17:00,
2013-09-12 16:22:00,79.7,79.3,29.91,SW,225,0.7,0.7,99,0.32,,,0.99,957.0,meteobridge,2013-09-12 20:22:00,
2013-09-12 16:27:00,80.2,79.9,29.91,SE,135,0.7,1.6,99,0.19,,,0.99,957.0,meteobridge,2013-09-12 20:27:00,
2013-09-12 16:32:00,80.2,79.9,29.91,NW,315,0.7,0.7,99,0.11,,,0.99,921.0,meteobridge,2013-09-12 20:32:00,
2013-09-12 16:37:00,81.0,80.4,29.92,SW,225,1.6,1.6,98,0.05,,,0.99,921.0,meteobridge,2013-09-12 20:37:00,
2013-09-12 16:43:00,81.5,80.6,29.92,South,180,1.6,1.6,97,0.02,,,0.99,921.0,meteobridge,2013-09-12 20:43:00,
2013-09-12 16:48:00,81.9,80.2,29.92,East,90,4.5,4.5,95,0.00,,,0.99,921.0,meteobridge,2013-09-12 20:48:00,
2013-09-12 16:53:00,81.9,79.7,29.91,South,180,1.6,1.6,93,0.00,,,0.99,921.0,meteobridge,2013-09-12 20:53:00,
2013-09-12 16:58:00,81.9,79.0,29.91,South,180,0.0,0.7,91,0.00,,,0.99,921.0,meteobridge,2013-09-12 20:58:00,
2013-09-12 17:03:00,82.2,79.3,29.91,East,90,0.7,0.7,91,0.00,,,0.99,921.0,meteobridge,2013-09-12 21:03:00,
2013-09-12 17:08:00,82.8,79.2,29.91,North,0,0.7,1.6,89,0.00,,,0.99,921.0,meteobridge,2013-09-12 21:08:00,
2013-09-12 17:14:00,82.9,78.6,29.91,North,0,0.0,0.0,87,0.00,,,0.99,921.0,meteobridge,2013-09-12 21:14:00,
2013-09-12 17:19:00,82.8,78.8,29.91,South,180,0.7,1.6,88,0.00,,,0.99,921.0,meteobridge,2013-09-12 21:19:00,
2013-09-12 17:24:00,82.6,78.6,29.90,NE,45,3.1,3.1,88,0.00,,,0.99,884.0,meteobridge,2013-09-12 21:24:00,
2013-09-12 17:29:00,82.6,77.5,29.91,South,180,1.6,2.2,85,0.00,,,0.99,884.0,meteobridge,2013-09-12 21:29:00,
2013-09-12 17:34:00,82.8,77.4,29.90,East,90,1.6,2.2,84,0.00,,,0.99,884.0,meteobridge,2013-09-12 21:34:00,
2013-09-12 17:39:00,82.9,76.5,29.90,East,90,1.6,2.2,81,0.00,,,0.99,884.0,meteobridge,2013-09-12 21:39:00,
2013-09-12 17:45:00,82.9,76.1,29.90,East,90,1.6,1.6,80,0.00,,,0.99,884.0,meteobridge,2013-09-12 21:45:00,
2013-09-12 17:50:00,82.8,75.9,29.90,South,180,0.7,0.7,80,0.00,,,0.99,884.0,meteobridge,2013-09-12 21:50:00,
2013-09-12 17:55:00,82.4,76.6,29.91,South,180,0.7,0.7,83,0.00,,,0.99,884.0,meteobridge,2013-09-12 21:55:00,
2013-09-12 18:00:00,82.2,76.8,29.91,SE,135,2.2,2.2,84,0.00,,,0.99,884.0,meteobridge,2013-09-12 22:00:00,
2013-09-12 18:05:00,82.2,76.8,29.91,East,90,0.7,1.6,84,0.00,,,0.99,847.0,meteobridge,2013-09-12 22:05:00,
2013-09-12 18:10:00,82.2,77.2,29.91,East,90,2.2,2.2,85,0.00,,,0.99,847.0,meteobridge,2013-09-12 22:10:00,
2013-09-12 18:16:00,82.4,77.4,29.92,NE,45,2.2,2.2,85,0.00,,,0.99,847.0,meteobridge,2013-09-12 22:16:00,
2013-09-12 18:21:00,82.6,77.9,29.92,NE,45,0.7,0.7,86,0.00,,,0.99,847.0,meteobridge,2013-09-12 22:21:00,
2013-09-12 18:26:00,82.6,78.3,29.93,SW,225,5.4,5.4,87,0.00,,,0.99,847.0,meteobridge,2013-09-12 22:26:00,
2013-09-12 18:31:00,82.4,77.4,29.92,West,270,2.2,2.2,85,0.00,,,0.99,847.0,meteobridge,2013-09-12 22:31:00,
2013-09-12 18:36:00,82.2,77.2,29.93,South,180,2.2,3.1,85,0.00,,,0.99,847.0,meteobridge,2013-09-12 22:36:00,
2013-09-12 18:41:00,81.9,77.2,29.93,SW,225,1.6,1.6,86,0.00,,,0.99,847.0,meteobridge,2013-09-12 22:41:00,
2013-09-12 18:47:00,81.9,77.2,29.93,West,270,0.0,1.6,86,0.00,,,0.99,847.0,meteobridge,2013-09-12 22:47:00,
2013-09-12 18:52:00,82.0,77.4,29.93,South,180,1.6,2.2,86,0.00,,,0.99,811.0,meteobridge,2013-09-12 22:52:00,
2013-09-12 18:57:00,81.9,77.2,29.93,East,90,5.4,5.4,86,0.00,,,0.99,811.0,meteobridge,2013-09-12 22:57:00,
2013-09-12 19:02:00,81.3,76.6,29.93,SE,135,7.6,13.0,86,0.01,,,1.00,811.0,meteobridge,2013-09-12 23:02:00,
2013-09-12 19:07:00,80.1,76.5,29.93,South,180,6.0,9.2,89,0.01,,,1.00,811.0,meteobridge,2013-09-12 23:07:00,
2013-09-12 19:12:00,78.8,76.3,29.94,East,90,10.7,10.7,92,0.01,,,1.00,811.0,meteobridge,2013-09-12 23:12:00,
2013-09-12 19:18:00,78.3,76.5,29.94,SSE,158,6.0,10.7,94,0.01,,,1.00,811.0,meteobridge,2013-09-12 23:18:00,
2013-09-12 19:23:00,77.7,76.5,29.94,NE,45,6.9,8.3,96,0.01,,,1.00,811.0,meteobridge,2013-09-12 23:23:00,
2013-09-12 19:28:00,77.4,75.7,29.95,East,90,6.9,13.0,95,0.01,,,1.00,811.0,meteobridge,2013-09-12 23:28:00,
2013-09-12 19:33:00,77.0,75.7,29.95,WSW,248,4.5,5.4,96,0.01,,,1.00,811.0,meteobridge,2013-09-12 23:33:00,
2013-09-12 19:38:00,76.8,75.6,29.96,NE,45,5.4,6.9,96,0.01,,,1.00,811.0,meteobridge,2013-09-12 23:38:00,
2013-09-12 19:43:00,76.3,75.4,29.96,South,180,6.9,6.9,97,0.01,,,1.00,811.0,meteobridge,2013-09-12 23:43:00,
2013-09-12 19:49:00,75.9,75.4,29.96,SE,135,6.0,6.0,98,0.01,,,1.00,811.0,meteobridge,2013-09-12 23:49:00,
2013-09-12 19:54:00,75.4,74.8,29.96,SE,135,3.1,5.4,98,0.01,,,1.00,811.0,meteobridge,2013-09-12 23:54:00,
2013-09-12 19:59:00,75.4,74.8,29.96,East,90,7.6,7.6,98,0.01,,,1.00,811.0,meteobridge,2013-09-12 23:59:00,
2013-09-12 20:04:00,75.2,74.8,29.96,East,90,4.5,7.6,99,0.00,,,1.00,811.0,meteobridge,2013-09-13 00:04:00,
2013-09-12 20:09:00,75.2,74.8,29.96,SE,135,4.5,4.5,99,0.00,,,1.00,811.0,meteobridge,2013-09-13 00:09:00,
2013-09-12 20:14:00,75.0,74.7,29.96,East,90,1.6,1.6,99,0.00,,,1.00,811.0,meteobridge,2013-09-13 00:14:00,
2013-09-12 20:19:00,75.0,74.7,29.96,South,180,1.6,1.6,99,0.00,,,1.00,811.0,meteobridge,2013-09-13 00:19:00,
2013-09-12 20:25:00,75.2,74.8,29.96,NE,45,2.2,2.2,99,0.00,,,1.00,811.0,meteobridge,2013-09-13 00:25:00,
2013-09-12 20:30:00,75.2,74.8,29.96,ENE,68,3.1,3.1,99,0.00,,,1.00,811.0,meteobridge,2013-09-13 00:30:00,
2013-09-12 20:35:00,75.2,74.8,29.96,East,90,3.8,4.5,99,0.00,,,1.00,811.0,meteobridge,2013-09-13 00:35:00,
2013-09-12 20:40:00,75.0,74.7,29.96,East,90,3.1,3.8,99,0.00,,,1.00,811.0,meteobridge,2013-09-13 00:40:00,
2013-09-12 20:45:00,74.8,74.5,29.96,East,90,3.8,3.8,99,0.00,,,1.00,811.0,meteobridge,2013-09-13 00:45:00,
2013-09-12 20:50:00,74.8,74.5,29.96,South,180,3.1,4.5,99,0.00,,,1.00,811.0,meteobridge,2013-09-13 00:50:00,
2013-09-12 20:56:00,74.7,74.3,29.96,SSE,158,3.8,3.8,99,0.00,,,1.00,811.0,meteobridge,2013-09-13 00:56:00,
2013-09-12 21:01:00,74.7,74.3,29.96,SSE,158,3.1,3.8,99,0.00,,,1.00,847.0,meteobridge,2013-09-13 01:01:00,
2013-09-12 21:06:00,74.7,74.3,29.95,SE,135,6.9,6.9,99,0.00,,,1.00,847.0,meteobridge,2013-09-13 01:06:00,
2013-09-12 21:11:00,74.5,74.1,29.95,South,180,4.5,6.0,99,0.00,,,1.00,847.0,meteobridge,2013-09-13 01:11:00,
2013-09-12 21:16:00,74.7,74.3,29.95,East,90,2.2,5.4,99,0.00,,,1.00,847.0,meteobridge,2013-09-13 01:16:00,
2013-09-12 21:21:00,74.7,74.3,29.95,East,90,2.2,2.2,99,0.01,,,1.02,847.0,meteobridge,2013-09-13 01:21:00,
2013-09-12 21:27:00,74.7,74.3,29.95,South,180,0.7,0.7,99,0.01,,,1.02,847.0,meteobridge,2013-09-13 01:27:00,
2013-09-12 21:32:00,74.7,74.3,29.95,South,180,3.1,3.1,99,0.01,,,1.02,884.0,meteobridge,2013-09-13 01:32:00,
2013-09-12 21:37:00,74.7,74.3,29.94,South,180,2.2,3.1,99,0.01,,,1.02,884.0,meteobridge,2013-09-13 01:37:00,
2013-09-12 21:42:00,74.7,74.3,29.94,South,180,3.1,3.1,99,0.01,,,1.02,884.0,meteobridge,2013-09-13 01:42:00,
2013-09-12 21:47:00,74.5,74.1,29.95,SE,135,0.7,1.6,99,0.01,,,1.02,884.0,meteobridge,2013-09-13 01:47:00,
2013-09-12 21:52:00,74.5,74.1,29.95,SE,135,2.2,3.1,99,0.01,,,1.02,921.0,meteobridge,2013-09-13 01:52:00,
2013-09-12 21:58:00,74.3,73.9,29.95,SE,135,2.2,3.8,99,0.01,,,1.02,921.0,meteobridge,2013-09-13 01:58:00,
2013-09-12 22:03:00,74.3,73.9,29.94,SE,135,2.2,3.8,99,0.01,,,1.02,921.0,meteobridge,2013-09-13 02:03:00,
2013-09-12 22:08:00,74.3,73.9,29.95,East,90,2.2,2.2,99,0.01,,,1.02,921.0,meteobridge,2013-09-13 02:08:00,
2013-09-12 22:13:00,74.3,73.9,29.94,East,90,1.6,3.8,99,0.01,,,1.02,957.0,meteobridge,2013-09-13 02:13:00,
2013-09-12 22:18:00,74.3,73.9,29.95,East,90,2.2,2.2,99,0.00,,,1.02,957.0,meteobridge,2013-09-13 02:18:00,
2013-09-12 22:23:00,74.3,73.9,29.95,South,180,2.2,2.2,99,0.00,,,1.02,994.0,meteobridge,2013-09-13 02:23:00,
2013-09-12 22:29:00,74.1,73.8,29.94,South,180,0.0,0.7,99,0.00,,,1.02,994.0,meteobridge,2013-09-13 02:29:00,
2013-09-12 22:34:00,74.1,73.8,29.94,South,180,0.7,1.6,99,0.00,,,1.02,994.0,meteobridge,2013-09-13 02:34:00,
2013-09-12 22:39:00,73.9,73.6,29.94,South,180,0.7,1.6,99,0.00,,,1.02,994.0,meteobridge,2013-09-13 02:39:00,
2013-09-12 22:44:00,73.9,73.6,29.94,South,180,2.2,2.2,99,0.00,,,1.02,1030.0,meteobridge,2013-09-13 02:44:00,
2013-09-12 22:49:00,74.1,73.8,29.94,East,90,1.6,1.6,99,0.00,,,1.02,1030.0,meteobridge,2013-09-13 02:49:00,
2013-09-12 22:55:00,74.3,73.9,29.94,East,90,3.1,3.1,99,0.00,,,1.02,1030.0,meteobridge,2013-09-13 02:55:00,
2013-09-12 23:00:00,74.3,73.9,29.94,East,90,0.7,2.2,99,0.00,,,1.02,1030.0,meteobridge,2013-09-13 03:00:00,
2013-09-12 23:05:00,74.3,73.9,29.94,West,270,0.0,0.0,99,0.00,,,1.02,1067.0,meteobridge,2013-09-13 03:05:00,
2013-09-12 23:10:00,74.3,73.9,29.94,West,270,0.0,0.0,99,0.00,,,1.02,1067.0,meteobridge,2013-09-13 03:10:00,
2013-09-12 23:15:00,73.9,73.6,29.93,West,270,0.7,0.7,99,0.00,,,1.02,1104.0,meteobridge,2013-09-13 03:15:00,
2013-09-12 23:20:00,73.9,73.6,29.93,West,270,0.0,0.0,99,0.00,,,1.02,1104.0,meteobridge,2013-09-13 03:20:00,
2013-09-12 23:26:00,73.9,73.6,29.93,West,270,0.7,0.7,99,0.00,,,1.02,1104.0,meteobridge,2013-09-13 03:26:00,
2013-09-12 23:31:00,73.6,73.2,29.93,West,270,0.0,0.0,99,0.00,,,1.02,1140.0,meteobridge,2013-09-13 03:31:00,
2013-09-12 23:36:00,73.4,73.0,29.93,West,270,0.0,0.0,99,0.00,,,1.02,1140.0,meteobridge,2013-09-13 03:36:00,
2013-09-12 23:41:00,73.4,73.0,29.93,East,90,0.7,1.6,99,0.00,,,1.02,1177.0,meteobridge,2013-09-13 03:41:00,
2013-09-12 23:46:00,73.6,73.2,29.93,West,270,0.0,0.7,99,0.00,,,1.02,1177.0,meteobridge,2013-09-13 03:46:00,
2013-09-12 23:51:00,73.6,73.2,29.93,North,0,0.0,0.7,99,0.00,,,1.02,1177.0,meteobridge,2013-09-13 03:51:00,
2013-09-12 23:57:00,73.8,73.4,29.93,East,90,3.1,3.1,99,0.00,,,1.02,1177.0,meteobridge,2013-09-13 03:57:00,